createdAt,value
2023-09-22T00:04:11.792Z,80.2
2023-09-22T00:19:32.745Z,83.6
2023-09-22T00:34:53.707Z,83.8
2023-09-22T00:50:14.660Z,84.8
2023-09-22T01:05:35.636Z,85.4
2023-09-22T01:20:56.589Z,86
2023-09-22T01:36:16.564Z,87.3
2023-09-22T01:51:37.476Z,98
2023-09-22T02:06:58.503Z,100
2023-09-22T02:22:19.470Z,100
2023-09-22T02:37:40.426Z,100
2023-09-22T02:53:01.386Z,100
2023-09-22T03:08:22.351Z,100
2023-09-22T03:23:43.309Z,100
2023-09-22T03:39:04.282Z,100
2023-09-22T03:54:25.237Z,100
2023-09-22T04:09:46.207Z,100
2023-09-22T04:25:07.162Z,100
2023-09-22T04:40:28.084Z,100
2023-09-22T04:55:47.952Z,100
2023-09-22T05:11:08.888Z,100
2023-09-22T05:26:29.804Z,100
2023-09-22T05:41:50.730Z,100
2023-09-22T05:57:11.648Z,100
2023-09-22T06:12:32.553Z,100
2023-09-22T06:27:53.485Z,100
2023-09-22T06:43:14.395Z,100
2023-09-22T06:58:35.312Z,100
2023-09-22T07:13:56.237Z,100
2023-09-22T07:29:17.148Z,100
2023-09-22T07:44:38.069Z,100
2023-09-22T07:59:58.981Z,100
2023-09-22T08:15:18.930Z,99.7
2023-09-22T08:30:39.835Z,99.3
2023-09-22T08:46:00.754Z,97.7
2023-09-22T09:01:21.680Z,95.6
2023-09-22T09:16:42.602Z,96.3
2023-09-22T09:32:03.509Z,90.9
2023-09-22T09:47:24.443Z,88.6
2023-09-22T10:02:45.358Z,86.7
2023-09-22T10:18:06.278Z,84.9
2023-09-22T10:33:27.197Z,81.3
2023-09-22T10:48:48.113Z,81.3
2023-09-22T11:04:09.026Z,81.3
2023-09-22T11:19:29.964Z,80.9
2023-09-22T11:34:49.888Z,80.5
2023-09-22T11:50:10.814Z,84.1
2023-09-22T12:05:31.726Z,86.8
2023-09-22T12:20:52.657Z,85.3
2023-09-22T12:36:13.565Z,84.6
2023-09-22T12:51:34.497Z,84.4
2023-09-22T13:06:55.411Z,83.1
2023-09-22T13:22:16.331Z,82.1
2023-09-22T13:52:58.161Z,81.9
2023-09-22T14:08:19.085Z,82.7
2023-09-22T14:23:40.009Z,82.3
2023-09-22T14:39:00.932Z,81.7
2023-09-22T14:54:20.859Z,74.4
2023-09-22T14:55:41.923Z,74.1
2023-09-22T14:57:03.005Z,72.6
2023-09-22T14:58:24.067Z,75.5
2023-09-22T14:59:45.120Z,76.1
2023-09-22T15:01:06.187Z,74.2
2023-09-22T15:02:27.270Z,73.7
2023-09-22T15:03:48.320Z,73.3
2023-09-22T15:05:09.393Z,73.4
2023-09-22T15:06:30.458Z,73.3
2023-09-22T15:07:51.526Z,75.1
2023-09-22T15:09:12.594Z,75.3
2023-09-22T15:10:33.660Z,75.3
2023-09-22T15:11:53.755Z,76.7
2023-09-22T15:13:14.812Z,76.2
2023-09-22T15:14:35.881Z,77.2
2023-09-22T15:15:56.948Z,77.3
2023-09-22T15:17:18.015Z,78.1
2023-09-22T15:18:39.080Z,78.9
2023-09-22T15:20:00.135Z,78.5
2023-09-22T15:21:21.203Z,79.4
2023-09-22T15:22:42.267Z,79.3
2023-09-22T15:24:03.340Z,79.9
2023-09-22T15:25:24.407Z,80.2
2023-09-22T15:26:45.465Z,80.2
2023-09-22T15:28:06.536Z,81.5
2023-09-22T15:29:26.627Z,81.1
2023-09-22T15:30:47.685Z,81.6
2023-09-22T15:32:08.766Z,81.5
2023-09-22T15:33:29.824Z,81.7
2023-09-22T15:34:50.896Z,82.5
2023-09-22T15:36:11.965Z,81.9
2023-09-22T15:37:33.031Z,81.8
2023-09-22T15:38:54.099Z,83.5
2023-09-22T15:40:15.178Z,83.3
2023-09-22T15:41:36.236Z,83.6
2023-09-22T15:42:57.314Z,83.5
2023-09-22T15:44:18.387Z,83.8
2023-09-22T15:45:39.439Z,84
2023-09-22T15:46:59.527Z,83.6
2023-09-22T15:48:20.593Z,83.9
2023-09-22T15:49:41.673Z,84.8
2023-09-22T15:51:02.726Z,84.8
2023-09-22T15:52:23.803Z,84.3
2023-09-22T15:53:44.872Z,84.9
2023-09-22T15:55:05.922Z,84.8
2023-09-22T15:56:26.995Z,85
2023-09-22T15:57:48.059Z,85.5
2023-09-22T15:59:09.127Z,85.6
2023-09-22T16:00:30.191Z,85.6
2023-09-22T16:01:51.261Z,86.2
2023-09-22T16:03:12.323Z,85.6
2023-09-22T16:04:32.405Z,85.3
2023-09-22T16:05:53.493Z,85.3
2023-09-22T16:07:14.551Z,85.2
2023-09-22T16:08:35.627Z,84.9
2023-09-22T16:09:56.681Z,85.2
2023-09-22T16:11:17.760Z,85.3
2023-09-22T16:12:38.811Z,85.7
2023-09-22T16:13:59.889Z,85.2
2023-09-22T16:15:20.947Z,85.7
2023-09-22T16:16:42.021Z,85.3
2023-09-22T16:18:03.072Z,85.2
2023-09-22T16:19:24.138Z,85.5
2023-09-22T16:20:45.211Z,85.8
2023-09-22T16:22:05.296Z,86.1
2023-09-22T16:23:26.369Z,85.9
2023-09-22T16:24:47.434Z,85.5
2023-09-22T16:26:08.510Z,86
2023-09-22T16:27:29.572Z,86.1
2023-09-22T16:28:50.640Z,85.5
2023-09-22T16:30:11.690Z,85.7
2023-09-22T16:31:32.759Z,86
2023-09-22T16:32:53.841Z,85.9
2023-09-22T16:34:14.898Z,86
2023-09-22T16:35:35.973Z,86.3
2023-09-22T16:36:57.040Z,85.8
2023-09-22T16:38:18.111Z,86.3
2023-09-22T16:39:38.184Z,86.6
2023-09-22T16:40:59.244Z,86.2
2023-09-22T16:42:20.321Z,85.9
2023-09-22T16:43:41.379Z,87
2023-09-22T16:45:02.440Z,86.1
2023-09-22T16:46:23.519Z,86.3
2023-09-22T16:47:44.587Z,86.4
2023-09-22T16:49:05.652Z,87.2
2023-09-22T16:50:26.708Z,87
2023-09-22T16:51:47.778Z,86.8
2023-09-22T16:53:08.835Z,86.7
2023-09-22T16:54:29.905Z,86.4
2023-09-22T16:55:50.979Z,86.5
2023-09-22T16:57:12.044Z,86.2
2023-09-22T16:58:32.123Z,86.7
2023-09-22T16:59:53.197Z,86.6
2023-09-22T17:01:14.267Z,87.1
2023-09-22T17:02:35.332Z,87.3
2023-09-22T17:03:56.392Z,87.7
2023-09-22T17:05:17.455Z,87.4
2023-09-22T17:06:38.537Z,87.4
2023-09-22T17:07:59.603Z,87.5
2023-09-22T17:09:20.669Z,87.9
2023-09-22T17:10:41.732Z,87.7
2023-09-22T17:12:02.801Z,87.7
2023-09-22T17:13:23.872Z,88.3
2023-09-22T17:14:44.941Z,87.9
2023-09-22T17:16:05.018Z,87.8
2023-09-22T17:17:26.074Z,87.8
2023-09-22T17:18:47.151Z,87.6
2023-09-22T17:20:08.215Z,87.8
2023-09-22T17:21:29.280Z,87.7
2023-09-22T17:22:49.378Z,87.5
2023-09-22T17:24:10.484Z,87.8
2023-09-22T17:25:31.543Z,87.6
2023-09-22T17:26:52.608Z,87.2
2023-09-22T17:28:13.728Z,86.8
2023-09-22T17:29:34.779Z,86.7
2023-09-22T17:30:55.906Z,86.5
2023-09-22T17:32:16.995Z,86.5
2023-09-22T17:33:38.108Z,86.2
2023-09-22T17:34:59.221Z,85.6
2023-09-22T17:36:20.336Z,85.6
2023-09-22T17:37:41.438Z,85.6
2023-09-22T17:39:02.554Z,85.7
2023-09-22T17:40:22.684Z,85.7
2023-09-22T17:41:43.784Z,86.2
2023-09-22T17:43:04.906Z,85.7
2023-09-22T17:44:26.011Z,85.5
2023-09-22T17:45:47.118Z,85.5
2023-09-22T17:47:08.209Z,84.6
2023-09-22T17:48:29.342Z,84.9
2023-09-22T17:49:50.453Z,84.5
2023-09-22T17:51:11.540Z,84.4
2023-09-22T17:52:32.646Z,84.4
2023-09-22T17:53:53.764Z,84.3
2023-09-22T17:55:14.890Z,84.6
2023-09-22T17:56:35.977Z,84.3
2023-09-22T17:57:56.117Z,84.3
2023-09-22T17:59:17.233Z,84
2023-09-22T18:00:38.329Z,84
2023-09-22T18:01:59.433Z,84.1
2023-09-22T18:03:20.556Z,84.2
2023-09-22T18:04:41.667Z,84
2023-09-22T18:06:02.765Z,84.5
2023-09-22T18:07:23.873Z,84
2023-09-22T18:08:44.983Z,84.1
2023-09-22T18:10:06.096Z,84
2023-09-22T18:11:27.213Z,83.8
2023-09-22T18:12:48.309Z,83.9
2023-09-22T18:14:09.434Z,83.7
2023-09-22T18:15:30.530Z,84
2023-09-22T18:16:50.666Z,84.1
2023-09-22T18:18:11.774Z,84
2023-09-22T18:19:32.867Z,84.3
2023-09-22T18:20:53.988Z,84.2
2023-09-22T18:22:15.084Z,84.5
2023-09-22T18:23:36.199Z,84.6
2023-09-22T18:26:18.411Z,85.4
2023-09-22T18:27:39.523Z,85.5
2023-09-22T18:29:00.634Z,85.3
2023-09-22T18:30:21.741Z,85.6
2023-09-22T18:31:42.849Z,85.4
2023-09-22T18:33:03.946Z,85.4
2023-09-22T18:34:24.073Z,85.5
2023-09-22T18:35:45.180Z,85.3
2023-09-22T18:37:06.290Z,85.5
2023-09-22T18:38:27.414Z,85.5
2023-09-22T18:39:48.507Z,85.3
2023-09-22T18:41:09.626Z,85.3
2023-09-22T18:42:30.725Z,85.7
2023-09-22T18:43:51.839Z,85.9
2023-09-22T18:45:12.952Z,85.8
2023-09-22T18:46:34.044Z,85.7
2023-09-22T18:47:55.160Z,85.9
2023-09-22T18:50:37.376Z,85.8
2023-09-22T18:51:57.506Z,86
2023-09-22T18:53:18.614Z,85.9
2023-09-22T18:54:39.721Z,85.8
2023-09-22T18:56:00.826Z,85.9
2023-09-22T18:57:21.928Z,85.8
2023-09-22T18:58:43.052Z,85.9
2023-09-22T19:00:04.159Z,86.2
2023-09-22T19:01:25.270Z,86.1
2023-09-22T19:02:46.380Z,86
2023-09-22T19:04:07.483Z,86.2
2023-09-22T19:05:28.604Z,86.3
2023-09-22T19:06:49.703Z,86.2
2023-09-22T19:08:10.816Z,86.4
2023-09-22T19:09:30.928Z,86.7
2023-09-22T19:10:52.052Z,86.8
2023-09-22T19:12:13.158Z,87.2
2023-09-22T19:14:55.362Z,87.2
2023-09-22T19:16:16.483Z,87.3
2023-09-22T19:17:37.593Z,87.3
2023-09-22T19:18:58.699Z,87.6
2023-09-22T19:20:19.797Z,87.7
2023-09-22T19:21:40.918Z,88
2023-09-22T19:23:02.016Z,88
2023-09-22T19:24:23.122Z,88.2
2023-09-22T19:25:44.243Z,88.4
2023-09-22T19:27:04.366Z,88.4
2023-09-22T19:28:25.477Z,88.5
2023-09-22T19:29:46.591Z,88.7
2023-09-22T19:31:07.693Z,88.6
2023-09-22T19:46:28.649Z,89.8
2023-09-22T20:01:49.607Z,91.2
2023-09-22T20:17:10.551Z,91.5
2023-09-22T20:32:31.540Z,91.3
2023-09-22T20:47:52.500Z,91.7
2023-09-22T21:03:13.454Z,92.4
2023-09-22T21:18:34.417Z,93.8
2023-09-22T21:33:55.385Z,94.6
2023-09-22T21:49:16.335Z,92.9
2023-09-22T22:04:36.332Z,91.2
2023-09-22T22:19:57.290Z,91.7
2023-09-22T22:35:18.251Z,90.7
2023-09-22T22:50:39.218Z,90.5
2023-09-22T23:06:00.190Z,90.1
2023-09-22T23:21:21.150Z,90.8
2023-09-22T23:36:42.099Z,91.3
2023-09-22T23:52:03.064Z,92.6
